createdAt,value
2023-02-24T00:02:14.999Z,7.20
2023-02-24T00:04:42.307Z,7.20
2023-02-24T00:07:13.625Z,7.20
2023-02-24T00:09:44.536Z,7.30
2023-02-24T00:12:16.081Z,7.20
2023-02-24T00:14:45.638Z,7.20
2023-02-24T00:17:15.553Z,7.20
2023-02-24T00:19:43.595Z,7.20
2023-02-24T00:22:11.214Z,7.10
2023-02-24T00:24:38.449Z,7.00
2023-02-24T00:27:08.603Z,7.00
2023-02-24T00:29:37.807Z,7.10
2023-02-24T00:32:15.188Z,7.00
2023-02-24T00:34:43.512Z,6.90
2023-02-24T00:37:10.852Z,7.00
2023-02-24T00:39:41.117Z,6.90
2023-02-24T00:42:09.118Z,6.60
2023-02-24T00:44:41.942Z,6.60
2023-02-24T00:47:12.201Z,6.50
2023-02-24T00:49:42.773Z,6.50
2023-02-24T00:52:20.984Z,6.50
2023-02-24T00:54:54.004Z,6.40
2023-02-24T00:57:21.704Z,6.20
2023-02-24T00:59:51.211Z,6.10
2023-02-24T01:02:18.965Z,6.00
2023-02-24T01:04:46.519Z,6.00
2023-02-24T01:07:13.828Z,5.90
2023-02-24T01:09:42.244Z,5.90
2023-02-24T01:12:22.108Z,5.90
2023-02-24T01:14:53.585Z,5.90
2023-02-24T01:17:22.945Z,5.80
2023-02-24T01:19:50.661Z,5.90
2023-02-24T01:22:23.540Z,5.80
2023-02-24T01:24:51.633Z,5.80
2023-02-24T01:27:19.731Z,5.70
2023-02-24T01:29:54.790Z,5.70
2023-02-24T01:32:22.456Z,5.70
2023-02-24T01:34:53.055Z,5.70
2023-02-24T01:37:24.149Z,5.50
2023-02-24T01:39:52.037Z,5.60
2023-02-24T01:42:23.305Z,5.50
2023-02-24T01:44:53.798Z,5.40
2023-02-24T01:47:30.390Z,5.50
2023-02-24T01:49:57.657Z,5.30
2023-02-24T01:52:36.371Z,5.40
2023-02-24T01:55:15.858Z,5.50
2023-02-24T01:57:43.234Z,5.40
2023-02-24T02:00:33.291Z,5.40
2023-02-24T02:03:12.889Z,5.20
2023-02-24T02:05:42.496Z,5.20
2023-02-24T02:08:12.839Z,5.00
2023-02-24T02:10:46.545Z,5.00
2023-02-24T02:13:21.622Z,5.10
2023-02-24T02:16:01.552Z,5.10
2023-02-24T02:19:03.850Z,5.10
2023-02-24T02:21:59.723Z,4.90
2023-02-24T02:25:15.579Z,4.80
2023-02-24T02:28:58.521Z,4.70
2023-02-24T02:32:32.224Z,4.60
2023-02-24T02:36:06.953Z,4.70
2023-02-24T02:38:45.573Z,4.60
2023-02-24T02:42:05.025Z,4.50
2023-02-24T02:45:33.187Z,4.60
2023-02-24T02:48:15.895Z,4.60
2023-02-24T02:50:55.784Z,4.60
2023-02-24T02:53:49.465Z,4.60
2023-02-24T02:56:37.049Z,4.60
2023-02-24T02:59:12.683Z,4.70
2023-02-24T03:01:46.369Z,4.60
2023-02-24T03:04:22.801Z,4.50
2023-02-24T03:07:02.779Z,4.30
2023-02-24T03:09:40.039Z,4.20
2023-02-24T03:12:17.925Z,4.30
2023-02-24T03:14:59.272Z,4.30
2023-02-24T03:17:41.388Z,4.40
2023-02-24T03:20:42.631Z,4.30
2023-02-24T03:23:30.920Z,4.40
2023-02-24T03:26:08.247Z,4.40
2023-02-24T03:28:44.604Z,4.30
2023-02-24T03:31:28.598Z,4.30
2023-02-24T03:35:00.735Z,4.30
2023-02-24T03:37:36.834Z,4.40
2023-02-24T03:40:14.939Z,4.30
2023-02-24T03:42:51.006Z,4.40
2023-02-24T03:45:21.461Z,4.50
2023-02-24T03:47:50.175Z,4.50
2023-02-24T03:50:27.095Z,4.50
2023-02-24T03:53:42.388Z,4.50
2023-02-24T03:56:22.609Z,4.60
2023-02-24T03:59:34.238Z,4.60
2023-02-24T04:02:33.253Z,4.50
2023-02-24T04:05:14.875Z,4.60
2023-02-24T04:08:10.519Z,4.60
2023-02-24T04:11:27.715Z,4.60
2023-02-24T04:14:34.260Z,4.50
2023-02-24T04:17:26.867Z,4.40
2023-02-24T04:20:01.514Z,4.40
2023-02-24T04:22:33.047Z,4.40
2023-02-24T04:25:05.878Z,4.40
2023-02-24T04:27:44.455Z,4.50
2023-02-24T04:30:13.466Z,4.30
2023-02-24T04:32:44.347Z,4.40
2023-02-24T04:35:16.969Z,4.50
2023-02-24T04:37:44.959Z,4.40
2023-02-24T04:40:23.090Z,4.40
2023-02-24T04:42:53.822Z,4.20
2023-02-24T04:45:29.221Z,4.20
2023-02-24T04:48:03.390Z,4.30
2023-02-24T04:50:38.866Z,4.30
2023-02-24T04:53:15.305Z,4.40
2023-02-24T04:55:50.798Z,4.40
2023-02-24T04:58:23.572Z,4.30
2023-02-24T05:01:01.079Z,4.30
2023-02-24T05:03:30.454Z,4.30
2023-02-24T05:06:00.157Z,4.40
2023-02-24T05:08:31.262Z,4.50
2023-02-24T05:11:00.993Z,4.30
2023-02-24T05:13:33.887Z,4.30
2023-02-24T05:16:09.350Z,4.20
2023-02-24T05:18:41.228Z,4.30
2023-02-24T05:21:33.844Z,4.30
2023-02-24T05:24:11.334Z,4.30
2023-02-24T05:26:44.514Z,4.30
2023-02-24T05:29:14.718Z,4.30
2023-02-24T05:31:41.815Z,4.30
2023-02-24T05:34:09.120Z,4.40
2023-02-24T05:36:41.134Z,4.40
2023-02-24T05:39:14.566Z,4.30
2023-02-24T05:41:45.498Z,4.20
2023-02-24T05:44:22.531Z,4.40
2023-02-24T05:47:03.148Z,4.40
2023-02-24T05:49:34.850Z,4.40
2023-02-24T05:52:09.072Z,4.30
2023-02-24T05:54:44.127Z,4.20
2023-02-24T05:57:27.428Z,4.40
2023-02-24T05:59:57.401Z,4.50
2023-02-24T06:02:29.305Z,4.50
2023-02-24T06:05:00.981Z,4.60
2023-02-24T06:07:34.712Z,4.30
2023-02-24T06:10:10.208Z,4.30
2023-02-24T06:12:40.988Z,4.30
2023-02-24T06:15:08.799Z,4.30
2023-02-24T06:17:39.402Z,4.40
2023-02-24T06:20:15.783Z,4.30
2023-02-24T06:22:42.895Z,4.40
2023-02-24T06:25:14.622Z,4.20
2023-02-24T06:27:45.990Z,4.20
2023-02-24T06:30:18.425Z,4.10
2023-02-24T06:32:45.861Z,4.10
2023-02-24T06:35:12.845Z,4.10
2023-02-24T06:37:43.019Z,4.20
2023-02-24T06:40:18.106Z,4.30
2023-02-24T06:42:55.817Z,4.40
2023-02-24T06:45:28.571Z,4.20
2023-02-24T06:47:55.708Z,4.20
2023-02-24T06:50:23.275Z,4.20
2023-02-24T06:53:17.127Z,4.40
2023-02-24T06:55:46.614Z,4.40
2023-02-24T06:58:20.516Z,4.30
2023-02-24T07:00:56.919Z,4.30
2023-02-24T07:03:39.532Z,4.30
2023-02-24T07:06:23.833Z,4.30
2023-02-24T07:08:55.125Z,4.30
2023-02-24T07:11:26.023Z,4.30
2023-02-24T07:13:54.656Z,4.30
2023-02-24T07:16:28.728Z,4.40
2023-02-24T07:19:01.933Z,4.40
2023-02-24T07:21:39.996Z,4.40
2023-02-24T07:24:19.480Z,4.50
2023-02-24T07:26:51.818Z,4.60
2023-02-24T07:29:33.255Z,4.60
2023-02-24T07:32:18.052Z,4.40
2023-02-24T07:34:45.876Z,4.40
2023-02-24T07:37:15.757Z,4.30
2023-02-24T07:40:25.757Z,4.40
2023-02-24T07:43:31.698Z,4.50
2023-02-24T07:46:08.568Z,4.20
2023-02-24T07:52:16.374Z,4.30
2023-02-24T07:54:52.200Z,4.20
2023-02-24T08:00:30.723Z,4.40
2023-02-24T08:02:59.386Z,4.40
2023-02-24T08:05:26.565Z,4.50
2023-02-24T08:07:57.171Z,4.40
2023-02-24T08:10:26.660Z,4.50
2023-02-24T08:12:56.735Z,4.80
2023-02-24T08:15:36.461Z,4.80
2023-02-24T08:18:04.279Z,4.60
2023-02-24T08:20:52.293Z,4.60
2023-02-24T08:26:12.829Z,4.60
2023-02-24T08:28:42.088Z,4.60
2023-02-24T08:31:09.573Z,4.60
2023-02-24T08:33:39.647Z,4.50
2023-02-24T08:39:19.486Z,4.70
2023-02-24T08:41:54.797Z,4.70
2023-02-24T08:44:28.586Z,4.90
2023-02-24T08:46:56.125Z,4.90
2023-02-24T08:49:28.255Z,5.10
2023-02-24T08:52:02.435Z,4.90
2023-02-24T08:54:33.063Z,4.80
2023-02-24T08:57:10.363Z,4.90
2023-02-24T08:59:50.401Z,5.00
2023-02-24T09:02:27.059Z,5.10
2023-02-24T09:05:13.039Z,5.00
2023-02-24T09:07:54.560Z,5.00
2023-02-24T09:10:27.139Z,4.90
2023-02-24T09:13:00.283Z,5.00
2023-02-24T09:15:41.531Z,5.00
2023-02-24T09:18:09.621Z,4.80
2023-02-24T09:21:18.766Z,4.90
2023-02-24T09:23:46.088Z,5.10
2023-02-24T09:26:20.820Z,5.20
2023-02-24T09:28:55.605Z,5.10
2023-02-24T09:31:41.529Z,5.30
2023-02-24T09:34:18.338Z,5.20
2023-02-24T09:36:45.255Z,5.30
2023-02-24T09:39:14.788Z,5.30
2023-02-24T09:42:08.069Z,5.30
2023-02-24T09:44:56.508Z,5.30
2023-02-24T09:47:40.657Z,5.30
2023-02-24T09:51:05.304Z,5.10
2023-02-24T09:53:42.634Z,5.30
2023-02-24T09:56:37.388Z,6.80
2023-02-24T09:59:36.360Z,6.00
2023-02-24T10:06:15.167Z,5.30
2023-02-24T10:09:11.671Z,5.20
2023-02-24T10:12:05.365Z,5.30
2023-02-24T10:15:18.673Z,5.50
2023-02-24T10:17:56.177Z,5.40
2023-02-24T10:20:39.401Z,5.40
2023-02-24T10:23:46.660Z,5.50
2023-02-24T10:26:59.038Z,5.50
2023-02-24T10:30:22.643Z,5.50
2023-02-24T10:33:12.622Z,5.30
2023-02-24T10:35:39.770Z,5.40
2023-02-24T10:38:06.677Z,5.50
2023-02-24T10:40:51.236Z,5.50
2023-02-24T10:43:30.072Z,5.40
2023-02-24T10:46:17.431Z,5.50
2023-02-24T10:49:01.854Z,5.20
2023-02-24T10:51:43.379Z,5.00
2023-02-24T10:55:04.819Z,4.90
2023-02-24T10:57:50.328Z,4.80
2023-02-24T11:00:51.875Z,5.00
2023-02-24T11:03:39.327Z,4.70
2023-02-24T11:06:42.076Z,4.40
2023-02-24T11:09:29.438Z,4.20
2023-02-24T11:12:41.325Z,4.10
2023-02-24T11:15:55.367Z,4.10
2023-02-24T11:18:29.343Z,3.90
2023-02-24T11:21:14.865Z,4.00
2023-02-24T11:24:06.231Z,3.90
2023-02-24T11:26:41.833Z,3.90
2023-02-24T11:29:42.477Z,3.70
2023-02-24T11:32:27.547Z,3.50
2023-02-24T11:35:29.320Z,3.80
2023-02-24T11:38:38.258Z,3.80
2023-02-24T11:41:38.632Z,3.70
2023-02-24T11:44:46.850Z,3.70
2023-02-24T11:47:22.877Z,4.10
2023-02-24T11:50:16.560Z,4.00
2023-02-24T11:52:52.718Z,4.00
2023-02-24T11:55:49.829Z,4.10
2023-02-24T11:58:52.958Z,4.20
2023-02-24T12:01:48.236Z,3.60
2023-02-24T12:04:39.750Z,3.20
2023-02-24T12:07:35.294Z,3.20
2023-02-24T12:10:17.869Z,3.30
2023-02-24T12:13:28.113Z,3.60
2023-02-24T12:16:24.446Z,3.50
2023-02-24T12:19:12.063Z,3.40
2023-02-24T12:21:58.186Z,3.60
2023-02-24T12:24:28.184Z,3.50
2023-02-24T12:27:19.987Z,3.40
2023-02-24T12:30:38.207Z,3.20
2023-02-24T12:33:44.068Z,3.50
2023-02-24T12:36:34.082Z,3.50
2023-02-24T12:39:27.210Z,3.40
2023-02-24T12:42:26.303Z,3.30
2023-02-24T12:45:53.099Z,3.10
2023-02-24T12:49:00.795Z,3.40
2023-02-24T12:52:31.440Z,3.10
2023-02-24T12:55:21.723Z,2.90
2023-02-24T12:58:17.730Z,3.00
2023-02-24T13:01:16.738Z,2.80
2023-02-24T13:04:33.639Z,3.00
2023-02-24T13:07:56.630Z,3.00
2023-02-24T13:10:41.474Z,2.90
2023-02-24T13:13:31.728Z,2.90
2023-02-24T13:16:00.701Z,2.90
2023-02-24T13:18:39.544Z,2.90
2023-02-24T13:21:23.427Z,3.00
2023-02-24T13:24:03.081Z,3.00
2023-02-24T13:26:32.941Z,3.00
2023-02-24T13:29:13.915Z,3.00
2023-02-24T13:31:55.549Z,3.20
2023-02-24T13:34:43.247Z,3.20
2023-02-24T13:37:12.173Z,3.20
2023-02-24T13:39:47.295Z,3.40
2023-02-24T13:45:21.043Z,3.50
2023-02-24T13:47:47.997Z,3.50
2023-02-24T13:50:57.219Z,3.30
2023-02-24T13:54:52.219Z,3.30
2023-02-24T13:58:07.759Z,3.40
2023-02-24T14:01:09.911Z,3.50
2023-02-24T14:03:42.946Z,3.80
2023-02-24T14:06:30.815Z,3.70
2023-02-24T14:09:04.745Z,3.50
2023-02-24T14:11:38.034Z,3.40
2023-02-24T14:14:24.258Z,3.50
2023-02-24T14:16:51.883Z,3.50
2023-02-24T14:19:19.880Z,3.50
2023-02-24T14:21:59.819Z,3.70
2023-02-24T14:24:30.043Z,3.70
2023-02-24T14:26:59.837Z,3.50
2023-02-24T14:29:43.832Z,3.60
2023-02-24T14:32:26.803Z,3.50
2023-02-24T14:34:55.323Z,3.50
2023-02-24T14:37:29.788Z,3.20
2023-02-24T14:40:00.979Z,3.60
2023-02-24T14:42:31.839Z,3.70
2023-02-24T14:44:59.771Z,3.90
2023-02-24T14:47:31.047Z,3.90
2023-02-24T14:50:04.133Z,3.90
2023-02-24T14:52:58.775Z,3.60
2023-02-24T14:55:37.340Z,3.60
2023-02-24T14:58:29.097Z,3.60
2023-02-24T15:01:22.766Z,3.60
2023-02-24T15:04:01.490Z,3.80
2023-02-24T15:06:42.408Z,3.50
2023-02-24T15:09:31.392Z,3.40
2023-02-24T15:11:58.691Z,3.50
2023-02-24T15:14:32.074Z,3.60
2023-02-24T15:17:10.386Z,3.50
2023-02-24T15:19:49.183Z,3.60
2023-02-24T15:22:41.431Z,3.60
2023-02-24T15:25:33.794Z,3.70
2023-02-24T15:28:36.081Z,3.70
2023-02-24T15:31:21.980Z,3.80
2023-02-24T15:34:00.537Z,3.60
2023-02-24T15:36:36.076Z,3.40
2023-02-24T15:39:24.056Z,3.30
2023-02-24T15:42:06.994Z,3.10
2023-02-24T15:44:38.173Z,2.90
2023-02-24T15:47:45.534Z,3.00
2023-02-24T15:50:14.321Z,3.20
2023-02-24T15:52:46.487Z,3.40
2023-02-24T15:55:20.341Z,3.40
2023-02-24T15:58:00.130Z,3.50
2023-02-24T16:00:29.054Z,3.60
2023-02-24T16:02:56.085Z,3.70
2023-02-24T16:05:25.626Z,3.60
2023-02-24T16:07:54.796Z,3.60
2023-02-24T16:10:28.709Z,3.80
2023-02-24T16:13:00.679Z,3.60
2023-02-24T16:15:39.359Z,3.50
2023-02-24T16:18:22.728Z,3.30
2023-02-24T16:20:54.869Z,3.40
2023-02-24T16:23:26.110Z,3.40
2023-02-24T16:26:00.494Z,3.40
2023-02-24T16:28:27.881Z,3.60
2023-02-24T16:30:54.906Z,3.50
2023-02-24T16:33:23.623Z,3.50
2023-02-24T16:35:54.887Z,3.50
2023-02-24T16:38:26.842Z,3.70
2023-02-24T16:40:55.715Z,3.40
2023-02-24T16:43:28.572Z,3.70
2023-02-24T16:46:24.072Z,3.70
2023-02-24T16:48:53.836Z,3.80
2023-02-24T16:51:22.498Z,3.80
2023-02-24T16:53:49.794Z,3.80
2023-02-24T16:56:17.157Z,3.90
2023-02-24T16:58:44.095Z,3.70
2023-02-24T17:01:23.648Z,3.70
2023-02-24T17:03:54.055Z,3.60
2023-02-24T17:06:27.042Z,3.50
2023-02-24T17:08:56.256Z,3.60
2023-02-24T17:11:33.129Z,3.60
2023-02-24T17:14:00.115Z,3.60
2023-02-24T17:16:30.019Z,3.60
2023-02-24T17:18:58.046Z,3.70
2023-02-24T17:21:25.022Z,3.80
2023-02-24T17:23:54.229Z,3.70
2023-02-24T17:26:24.319Z,3.70
2023-02-24T17:28:51.637Z,3.70
2023-02-24T17:31:21.059Z,3.70
2023-02-24T17:33:48.114Z,3.70
2023-02-24T17:36:15.398Z,3.70
2023-02-24T17:38:42.403Z,3.70
2023-02-24T17:41:15.514Z,3.80
2023-02-24T17:43:42.527Z,3.80
2023-02-24T17:46:09.579Z,3.80
2023-02-24T17:48:36.478Z,3.80
2023-02-24T17:51:03.789Z,3.80
2023-02-24T17:56:19.537Z,3.80
2023-02-24T17:58:46.711Z,3.80
2023-02-24T18:01:31.530Z,4.00
2023-02-24T18:04:01.635Z,4.10
2023-02-24T18:06:28.760Z,4.00
2023-02-24T18:08:55.818Z,4.10
2023-02-24T18:11:22.897Z,4.20
2023-02-24T18:13:53.188Z,4.10
2023-02-24T18:16:20.736Z,4.30
2023-02-24T18:18:48.120Z,4.10
2023-02-24T18:21:15.798Z,4.20
2023-02-24T18:23:42.998Z,4.40
2023-02-24T18:29:00.507Z,4.20
2023-02-24T18:31:29.251Z,4.30
2023-02-24T18:34:00.497Z,4.30
2023-02-24T18:36:28.152Z,4.40
2023-02-24T18:38:58.314Z,4.20
2023-02-24T18:41:27.797Z,4.10
2023-02-24T18:43:59.108Z,4.10
2023-02-24T18:46:29.589Z,4.30
2023-02-24T18:49:00.379Z,4.20
2023-02-24T18:51:29.167Z,4.20
2023-02-24T18:56:42.925Z,4.30
2023-02-24T18:59:15.750Z,4.20
2023-02-24T19:02:03.849Z,4.10
2023-02-24T19:04:31.256Z,4.20
2023-02-24T19:09:57.976Z,4.20
2023-02-24T19:12:25.482Z,4.20
2023-02-24T19:15:06.090Z,4.30
2023-02-24T19:17:35.621Z,4.10
2023-02-24T19:20:02.973Z,4.10
2023-02-24T19:22:45.982Z,4.10
2023-02-24T19:25:15.830Z,4.10
2023-02-24T19:27:51.034Z,4.30
2023-02-24T19:30:33.406Z,4.30
2023-02-24T19:33:05.804Z,4.20
2023-02-24T19:35:34.096Z,4.20
2023-02-24T19:38:01.144Z,4.30
2023-02-24T19:40:30.440Z,4.20
2023-02-24T19:42:59.264Z,4.40
2023-02-24T19:45:29.834Z,4.40
2023-02-24T19:47:56.877Z,4.50
2023-02-24T19:50:24.913Z,4.30
2023-02-24T19:52:52.600Z,4.20
2023-02-24T19:55:25.409Z,4.30
2023-02-24T19:58:03.181Z,4.40
2023-02-24T20:00:40.935Z,4.30
2023-02-24T20:03:43.125Z,4.30
2023-02-24T20:06:36.706Z,4.40
2023-02-24T20:09:18.230Z,4.20
2023-02-24T20:11:48.829Z,4.20
2023-02-24T20:14:19.986Z,4.30
2023-02-24T20:16:48.312Z,4.20
2023-02-24T20:19:22.299Z,4.40
2023-02-24T20:21:50.321Z,4.40
2023-02-24T20:24:19.219Z,4.30
2023-02-24T20:26:57.304Z,4.30
2023-02-24T20:29:26.555Z,4.30
2023-02-24T20:31:56.004Z,4.40
2023-02-24T20:34:23.353Z,4.40
2023-02-24T20:36:55.894Z,4.50
2023-02-24T20:39:28.094Z,4.40
2023-02-24T20:41:55.093Z,4.50
2023-02-24T20:44:23.070Z,4.40
2023-02-24T20:46:50.304Z,4.40
2023-02-24T20:49:17.362Z,4.40
2023-02-24T20:51:44.752Z,4.30
2023-02-24T20:54:13.764Z,4.40
2023-02-24T20:56:45.805Z,4.40
2023-02-24T20:59:23.788Z,4.30
2023-02-24T21:01:51.776Z,4.30
2023-02-24T21:04:21.925Z,4.30
2023-02-24T21:06:52.088Z,4.40
2023-02-24T21:09:21.107Z,4.40
2023-02-24T21:11:48.172Z,4.30
2023-02-24T21:14:17.914Z,4.50
2023-02-24T21:16:46.262Z,4.30
2023-02-24T21:19:13.928Z,4.20
2023-02-24T21:21:47.025Z,4.40
2023-02-24T21:24:14.640Z,4.30
2023-02-24T21:26:41.655Z,4.40
2023-02-24T21:29:14.885Z,4.30
2023-02-24T21:31:50.327Z,4.40
2023-02-24T21:34:33.990Z,4.50
2023-02-24T21:37:26.801Z,4.50
2023-02-24T21:39:57.470Z,4.60
2023-02-24T21:42:30.373Z,4.50
2023-02-24T21:48:05.583Z,4.30
2023-02-24T21:50:34.081Z,4.40
2023-02-24T21:53:01.197Z,4.40
2023-02-24T21:55:28.267Z,4.50
2023-02-24T21:57:58.974Z,4.60
2023-02-24T22:00:26.215Z,4.50
2023-02-24T22:03:08.661Z,4.50
2023-02-24T22:05:56.213Z,4.40
2023-02-24T22:08:49.154Z,4.50
2023-02-24T22:11:52.729Z,4.60
2023-02-24T22:14:34.035Z,4.60
2023-02-24T22:17:12.209Z,4.70
2023-02-24T22:19:40.244Z,4.60
2023-02-24T22:22:10.467Z,4.60
2023-02-24T22:24:48.984Z,4.60
2023-02-24T22:27:21.386Z,4.60
2023-02-24T22:29:48.669Z,4.50
2023-02-24T22:32:33.844Z,4.40
2023-02-24T22:35:03.692Z,4.40
2023-02-24T22:37:40.465Z,4.50
2023-02-24T22:40:19.844Z,4.60
2023-02-24T22:42:47.868Z,4.60
2023-02-24T22:45:14.908Z,4.50
2023-02-24T22:47:50.823Z,4.50
2023-02-24T22:50:18.234Z,4.50
2023-02-24T22:52:47.257Z,4.40
2023-02-24T22:55:19.789Z,4.50
2023-02-24T22:57:49.775Z,4.40
2023-02-24T23:00:20.388Z,4.50
2023-02-24T23:02:49.911Z,4.40
2023-02-24T23:05:16.973Z,4.50
2023-02-24T23:07:45.800Z,4.60
2023-02-24T23:10:12.892Z,4.50
2023-02-24T23:12:39.849Z,4.60
2023-02-24T23:15:08.382Z,4.60
2023-02-24T23:17:35.453Z,4.60
2023-02-24T23:20:12.977Z,4.60
2023-02-24T23:22:40.962Z,4.60
2023-02-24T23:25:12.931Z,4.60
2023-02-24T23:27:41.089Z,4.60
2023-02-24T23:30:12.394Z,4.70
2023-02-24T23:32:39.574Z,4.70
2023-02-24T23:35:07.457Z,4.60
2023-02-24T23:37:38.446Z,4.60
2023-02-24T23:40:09.873Z,4.50
2023-02-24T23:42:38.189Z,4.50
2023-02-24T23:45:10.751Z,4.40
2023-02-24T23:47:37.773Z,4.40
2023-02-24T23:50:05.774Z,4.30
2023-02-24T23:52:34.047Z,4.30
2023-02-24T23:55:01.022Z,4.20
2023-02-24T23:57:28.942Z,4.30
2023-02-24T23:59:59.436Z,4.30
